Time;durP1;ratioP1;P1;durP2;ratioP2;P2;SDS_P1;SDS_P2;PMS_P1;PMS_P2;Temp;Humidity;BMP_temperature;BMP_pressure;BME280_temperature;BME280_humidity;BME280_pressure;Samples;Min_cycle;Max_cycle;Signal;HPM_P1;HPM_P2
2021/05/26 00:02:17;;;;;;;14.02;3.42;;;8.80;99.90;;;;;;5014861;28;20034;-84
2021/05/26 00:04:42;;;;;;;5.40;2.70;;;8.80;99.90;;;;;;5014909;28;20068;-84
2021/05/26 00:07:08;;;;;;;11.18;2.72;;;8.80;99.90;;;;;;5029827;28;20117;-84
2021/05/26 00:09:34;;;;;;;11.45;2.90;;;8.80;99.90;;;;;;5014873;28;20030;-84
2021/05/26 00:12:00;;;;;;;12.50;2.88;;;8.80;99.90;;;;;;5014881;28;20032;-86
2021/05/26 00:14:25;;;;;;;11.23;2.47;;;8.80;99.90;;;;;;5014387;28;20505;-85
2021/05/26 00:16:51;;;;;;;6.63;2.50;;;8.80;99.90;;;;;;5014774;28;20102;-84
2021/05/26 00:19:17;;;;;;;15.88;3.13;;;8.80;99.90;;;;;;5013604;28;20391;-85
2021/05/26 00:21:42;;;;;;;12.52;2.70;;;8.90;99.90;;;;;;5013179;28;20033;-84
2021/05/26 00:24:08;;;;;;;9.05;3.20;;;8.80;99.90;;;;;;5014527;28;20105;-86
2021/05/26 00:26:34;;;;;;;10.88;2.97;;;8.70;99.90;;;;;;5013609;28;20442;-86
2021/05/26 00:28:59;;;;;;;5.10;2.75;;;8.60;99.90;;;;;;5014634;28;20045;-86
2021/05/26 00:31:25;;;;;;;12.27;3.47;;;8.60;99.90;;;;;;5013506;28;20033;-84
2021/05/26 00:33:51;;;;;;;20.80;3.90;;;8.50;99.90;;;;;;5014184;28;20034;-85
2021/05/26 00:36:17;;;;;;;17.15;3.97;;;8.50;99.90;;;;;;5014349;28;20053;-85
2021/05/26 00:38:43;;;;;;;6.00;3.65;;;8.40;99.90;;;;;;5014160;28;20117;-85
2021/05/26 00:41:09;;;;;;;10.20;4.75;;;8.40;99.90;;;;;;5014463;28;20539;-85
2021/05/26 00:43:35;;;;;;;9.38;3.08;;;8.40;99.90;;;;;;5014133;28;20080;-85
2021/05/26 00:46:01;;;;;;;10.35;3.83;;;8.40;99.90;;;;;;5029402;28;20026;-86
2021/05/26 00:48:26;;;;;;;10.55;4.05;;;8.40;99.90;;;;;;5013029;28;20117;-85
2021/05/26 00:50:52;;;;;;;14.15;4.38;;;8.40;99.90;;;;;;5012907;28;20081;-85
2021/05/26 00:53:17;;;;;;;17.17;4.30;;;8.50;99.90;;;;;;5013878;28;20033;-85
2021/05/26 00:55:44;;;;;;;10.98;4.00;;;8.50;99.90;;;;;;5012643;28;20029;-85
2021/05/26 00:58:11;;;;;;;16.58;4.55;;;8.40;99.90;;;;;;5012827;28;20033;-86
2021/05/26 01:00:38;;;;;;;15.27;5.10;;;8.40;99.90;;;;;;5014180;28;20018;-85
2021/05/26 01:03:05;;;;;;;18.55;4.57;;;8.40;99.90;;;;;;5013480;28;20026;-84
2021/05/26 01:05:32;;;;;;;18.73;5.22;;;8.40;99.90;;;;;;5012468;28;20072;-85
2021/05/26 01:07:57;;;;;;;17.83;4.72;;;8.40;99.90;;;;;;5013510;28;20088;-85
2021/05/26 01:10:26;;;;;;;24.60;5.53;;;8.40;99.90;;;;;;5012466;28;20025;-84
2021/05/26 01:12:52;;;;;;;18.65;4.53;;;8.40;99.90;;;;;;5013674;28;20036;-85
2021/05/26 01:15:19;;;;;;;28.48;5.20;;;8.40;99.90;;;;;;5012311;28;20097;-85
2021/05/26 01:17:46;;;;;;;20.40;5.00;;;8.40;99.90;;;;;;5013641;28;20076;-85
2021/05/26 01:20:32;;;;;;;21.05;4.50;;;8.40;99.90;;;;;;5012463;28;20040;-85
2021/05/26 01:23:00;;;;;;;14.80;4.68;;;8.50;99.90;;;;;;5000537;28;20074;-85
2021/05/26 01:25:25;;;;;;;8.85;4.25;;;8.40;99.90;;;;;;4992743;28;20034;-85
2021/05/26 01:27:51;;;;;;;13.30;4.40;;;8.50;99.90;;;;;;4993940;28;20095;-85
2021/05/26 01:30:17;;;;;;;16.77;5.35;;;8.50;99.90;;;;;;4993872;28;20026;-85
2021/05/26 01:32:46;;;;;;;24.90;5.13;;;8.50;99.90;;;;;;5002129;28;20038;-85
2021/05/26 01:35:13;;;;;;;15.55;5.32;;;8.60;99.90;;;;;;5013106;28;20026;-85
2021/05/26 01:37:40;;;;;;;27.67;6.10;;;8.50;99.90;;;;;;5011679;28;20160;-86
2021/05/26 01:40:08;;;;;;;22.40;5.90;;;8.50;99.90;;;;;;5012156;28;20026;-87
2021/05/26 01:42:34;;;;;;;22.05;5.28;;;8.50;99.90;;;;;;5011796;28;20104;-85
2021/05/26 01:45:01;;;;;;;26.90;5.70;;;8.50;99.90;;;;;;5011743;28;20112;-86
2021/05/26 01:47:26;;;;;;;20.80;5.78;;;8.50;99.90;;;;;;5011967;28;20026;-84
2021/05/26 01:49:52;;;;;;;25.65;6.03;;;8.50;99.90;;;;;;5013105;28;20493;-84
2021/05/26 01:52:18;;;;;;;18.45;5.68;;;8.50;99.90;;;;;;5011760;28;20036;-85
2021/05/26 01:54:43;;;;;;;18.13;5.57;;;8.50;99.90;;;;;;5013115;28;20018;-86
2021/05/26 01:57:11;;;;;;;23.73;6.82;;;8.50;99.90;;;;;;5012903;28;20026;-85
2021/05/26 01:59:37;;;;;;;18.10;5.35;;;8.50;99.90;;;;;;5011731;28;20026;-84
2021/05/26 02:02:02;;;;;;;16.17;5.20;;;8.50;99.90;;;;;;5011478;28;20033;-84
2021/05/26 02:04:28;;;;;;;16.85;5.05;;;8.70;99.90;;;;;;5011519;28;20395;-85
2021/05/26 02:07:07;;;;;;;13.77;5.45;;;8.50;99.90;;;;;;5011382;28;20081;-85
2021/05/26 02:09:34;;;;;;;24.73;6.43;;;8.50;99.90;;;;;;5012790;28;20026;-85
2021/05/26 02:14:44;;;;;;;19.83;6.20;;;8.50;99.90;;;;;;5011199;28;20064;-85
2021/05/26 02:17:10;;;;;;;29.83;6.35;;;8.50;99.90;;;;;;5011685;28;20050;-86
2021/05/26 02:19:35;;;;;;;26.42;6.93;;;8.60;99.90;;;;;;5012614;28;20064;-85
2021/05/26 02:22:01;;;;;;;20.33;6.25;;;8.50;99.90;;;;;;5012276;28;20037;-85
2021/05/26 02:24:26;;;;;;;15.55;5.95;;;8.60;99.90;;;;;;5027473;28;20109;-84
2021/05/26 02:26:52;;;;;;;24.42;6.65;;;8.50;99.90;;;;;;5027627;28;20501;-85
2021/05/26 02:29:18;;;;;;;24.27;6.68;;;8.60;99.90;;;;;;5011198;28;20407;-85
2021/05/26 02:31:43;;;;;;;32.75;7.93;;;8.50;99.90;;;;;;5012256;28;20056;-85
2021/05/26 02:34:09;;;;;;;22.30;7.03;;;8.50;99.90;;;;;;4992563;28;20022;-84
2021/05/26 02:36:35;;;;;;;20.50;6.78;;;8.60;99.90;;;;;;4993334;28;20639;-85
2021/05/26 02:39:00;;;;;;;24.20;7.88;;;8.60;99.90;;;;;;5012288;28;20105;-84
2021/05/26 02:41:26;;;;;;;16.92;6.82;;;8.60;99.90;;;;;;5027527;28;20489;-84
2021/05/26 02:43:51;;;;;;;16.67;6.13;;;8.60;99.90;;;;;;5011840;28;20064;-84
2021/05/26 02:46:17;;;;;;;23.75;6.40;;;8.60;99.90;;;;;;5012284;28;20042;-85
2021/05/26 02:48:42;;;;;;;17.92;5.55;;;8.60;99.90;;;;;;5010962;28;20025;-85
2021/05/26 02:51:08;;;;;;;26.73;5.82;;;8.60;99.90;;;;;;5011022;28;20022;-84
2021/05/26 02:53:34;;;;;;;16.40;4.90;;;8.60;99.90;;;;;;5010592;28;20018;-84
2021/05/26 02:55:59;;;;;;;23.30;5.50;;;8.60;99.90;;;;;;5010634;28;20030;-84
2021/05/26 02:58:25;;;;;;;21.35;6.47;;;8.60;99.90;;;;;;5027218;28;20022;-85
2021/05/26 03:00:50;;;;;;;20.10;5.50;;;8.60;99.90;;;;;;5010839;28;20058;-86
2021/05/26 03:03:16;;;;;;;20.63;6.15;;;8.60;99.90;;;;;;5027034;28;20022;-86
2021/05/26 03:05:41;;;;;;;25.25;6.05;;;8.60;99.90;;;;;;5010699;28;20089;-86
2021/05/26 03:08:07;;;;;;;32.70;7.53;;;8.60;99.90;;;;;;5010569;28;20024;-85
2021/05/26 03:10:33;;;;;;;21.00;6.47;;;8.60;99.90;;;;;;5010795;28;20122;-86
2021/05/26 03:12:58;;;;;;;23.85;6.63;;;8.70;99.90;;;;;;5010806;28;20022;-85
2021/05/26 03:15:24;;;;;;;24.13;7.07;;;8.60;99.90;;;;;;5012089;28;20026;-85
2021/05/26 03:17:50;;;;;;;26.88;6.78;;;8.60;99.90;;;;;;5011108;28;20037;-86
2021/05/26 03:20:16;;;;;;;18.73;6.93;;;8.60;99.90;;;;;;5012281;28;20058;-86
2021/05/26 03:22:42;;;;;;;19.33;7.25;;;8.60;99.90;;;;;;5012142;28;20030;-86
2021/05/26 03:25:10;;;;;;;31.13;7.32;;;8.50;99.90;;;;;;5011183;28;20034;-87
2021/05/26 03:27:37;;;;;;;21.48;6.28;;;8.50;99.90;;;;;;5015126;28;20030;-86
2021/05/26 03:30:14;;;;;;;17.77;6.22;;;8.50;99.90;;;;;;5015950;28;20022;-85
2021/05/26 03:32:42;;;;;;;19.02;6.70;;;8.50;99.90;;;;;;5014596;28;20486;-87
2021/05/26 03:35:09;;;;;;;18.92;6.15;;;8.50;99.90;;;;;;5014687;28;20037;-86
2021/05/26 03:37:35;;;;;;;19.30;6.65;;;8.50;99.90;;;;;;5015273;28;20041;-87
2021/05/26 03:40:01;;;;;;;27.73;7.22;;;8.40;99.90;;;;;;5031400;28;20026;-87
2021/05/26 03:42:26;;;;;;;27.95;8.25;;;8.40;99.90;;;;;;5014609;28;20033;-86
2021/05/26 03:44:53;;;;;;;20.30;7.05;;;8.40;99.90;;;;;;5014753;28;20026;-87
2021/05/26 03:47:19;;;;;;;17.92;7.20;;;8.30;99.90;;;;;;5015021;28;20025;-87
2021/05/26 03:49:44;;;;;;;24.25;7.40;;;8.30;99.90;;;;;;5014868;28;20030;-87
2021/05/26 03:52:11;;;;;;;18.83;8.13;;;8.30;99.90;;;;;;5014412;28;20052;-86
2021/05/26 03:54:37;;;;;;;21.73;6.63;;;8.30;99.90;;;;;;5014436;28;20096;-86
2021/05/26 03:57:04;;;;;;;32.88;7.65;;;8.30;99.90;;;;;;5015887;28;20048;-87
2021/05/26 03:59:29;;;;;;;29.83;7.68;;;8.30;99.90;;;;;;5015127;28;20033;-86
2021/05/26 04:01:55;;;;;;;27.20;8.80;;;8.30;99.90;;;;;;5015552;28;20026;-88
2021/05/26 04:04:22;;;;;;;29.73;8.43;;;8.30;99.90;;;;;;5015668;28;20045;-87
2021/05/26 04:06:47;;;;;;;36.00;9.55;;;8.40;99.90;;;;;;5015442;28;20026;-87
2021/05/26 04:09:13;;;;;;;31.75;8.13;;;8.40;99.90;;;;;;5016005;28;20196;-87
2021/05/26 04:11:39;;;;;;;37.08;9.25;;;8.40;99.90;;;;;;5014922;28;20033;-88
2021/05/26 04:14:05;;;;;;;31.40;8.98;;;8.40;99.90;;;;;;5015727;28;20060;-87
2021/05/26 04:16:30;;;;;;;40.25;11.50;;;8.40;99.90;;;;;;5015859;28;20049;-88
2021/05/26 04:18:56;;;;;;;32.95;10.00;;;8.40;99.90;;;;;;5014734;28;20022;-86
2021/05/26 04:21:21;;;;;;;26.80;9.00;;;8.40;99.90;;;;;;5015810;28;20037;-89
2021/05/26 04:23:47;;;;;;;39.05;8.65;;;8.40;99.90;;;;;;5030232;28;20486;-88
2021/05/26 04:26:12;;;;;;;33.63;9.32;;;8.40;99.90;;;;;;5014133;28;20033;-87
2021/05/26 04:28:42;;;;;;;21.77;7.85;;;8.30;99.90;;;;;;5030392;28;20025;-87
2021/05/26 04:31:12;;;;;;;32.53;8.68;;;8.30;99.90;;;;;;5015815;28;20018;-87
2021/05/26 04:33:39;;;;;;;33.75;8.18;;;8.30;99.90;;;;;;5015176;28;20030;-88
2021/05/26 04:36:05;;;;;;;17.38;6.43;;;8.30;99.90;;;;;;5013637;28;20034;-87
2021/05/26 04:38:31;;;;;;;21.58;7.03;;;8.30;99.90;;;;;;5013203;28;20046;-88
2021/05/26 04:40:56;;;;;;;33.53;8.63;;;8.20;99.90;;;;;;5015306;28;20025;-87
2021/05/26 04:43:22;;;;;;;19.58;6.97;;;8.20;99.90;;;;;;5014182;28;20400;-88
2021/05/26 04:45:48;;;;;;;26.15;7.38;;;8.20;99.90;;;;;;5013838;28;20021;-87
2021/05/26 04:48:13;;;;;;;27.58;6.72;;;8.20;99.90;;;;;;5013832;28;20026;-87
2021/05/26 04:50:39;;;;;;;14.82;5.40;;;8.20;99.90;;;;;;5014860;28;20038;-86
2021/05/26 04:53:05;;;;;;;18.35;5.65;;;8.20;99.90;;;;;;5014737;28;20080;-88
2021/05/26 04:55:30;;;;;;;23.75;7.28;;;8.10;99.90;;;;;;5014002;28;20026;-87
2021/05/26 04:58:01;;;;;;;21.15;7.70;;;8.20;99.90;;;;;;5013380;28;20068;-85
2021/05/26 05:00:27;;;;;;;20.83;7.18;;;8.20;99.90;;;;;;5014524;28;20437;-87
2021/05/26 05:02:53;;;;;;;36.00;7.93;;;8.20;99.90;;;;;;5014197;28;20033;-85
2021/05/26 05:05:20;;;;;;;30.08;7.70;;;8.20;99.90;;;;;;5029752;28;20513;-87
2021/05/26 05:07:45;;;;;;;27.92;7.55;;;8.30;99.90;;;;;;5012319;28;20038;-85
2021/05/26 05:10:11;;;;;;;28.08;6.72;;;8.30;99.90;;;;;;5013108;28;20029;-90
2021/05/26 05:12:37;;;;;;;12.57;4.68;;;8.30;99.90;;;;;;5014565;28;20562;-86
2021/05/26 05:15:04;;;;;;;20.58;4.45;;;8.20;99.90;;;;;;5013101;28;20109;-85
2021/05/26 05:17:29;;;;;;;21.75;4.88;;;8.10;99.90;;;;;;5012772;28;20022;-86
2021/05/26 05:19:55;;;;;;;17.95;5.43;;;8.10;99.90;;;;;;5014421;28;20041;-86
2021/05/26 05:22:20;;;;;;;10.52;3.13;;;8.10;99.90;;;;;;5013944;28;20041;-87
2021/05/26 05:24:46;;;;;;;12.00;3.08;;;8.10;99.90;;;;;;5014018;28;20382;-86
2021/05/26 05:27:12;;;;;;;11.63;2.83;;;8.00;99.90;;;;;;5012922;28;20120;-85
2021/05/26 05:29:37;;;;;;;12.90;3.63;;;8.00;99.90;;;;;;5012680;28;20030;-87
2021/05/26 05:32:03;;;;;;;14.40;3.30;;;8.00;99.90;;;;;;5013638;28;20045;-87
2021/05/26 05:34:28;;;;;;;15.38;3.45;;;7.90;99.90;;;;;;5012518;28;20026;-88
2021/05/26 05:36:54;;;;;;;13.13;4.10;;;7.90;99.90;;;;;;5012249;28;20088;-86
2021/05/26 05:39:19;;;;;;;7.50;4.00;;;7.90;99.90;;;;;;5013822;28;20549;-87
2021/05/26 05:41:45;;;;;;;18.63;5.32;;;7.90;99.90;;;;;;5013556;28;20040;-88
2021/05/26 05:44:11;;;;;;;23.38;4.88;;;7.90;99.90;;;;;;5012042;28;20034;-87
2021/05/26 05:46:37;;;;;;;21.33;4.00;;;8.10;99.90;;;;;;5013457;28;20394;-87
2021/05/26 05:49:02;;;;;;;16.38;3.55;;;8.20;99.90;;;;;;5012463;28;20390;-87
2021/05/26 05:51:28;;;;;;;12.02;4.13;;;8.20;99.90;;;;;;5012887;28;20029;-87
2021/05/26 05:53:54;;;;;;;33.40;5.50;;;8.20;99.90;;;;;;5013124;28;20030;-86
2021/05/26 05:56:19;;;;;;;15.88;4.40;;;8.20;99.90;;;;;;5028530;28;20022;-85
2021/05/26 05:58:45;;;;;;;18.67;4.97;;;8.40;99.90;;;;;;5028169;28;20029;-84
2021/05/26 06:01:10;;;;;;;32.40;4.30;;;8.50;99.90;;;;;;5027295;28;20502;-86
2021/05/26 06:03:36;;;;;;;16.60;3.90;;;8.60;99.90;;;;;;5011054;28;20505;-86
2021/05/26 06:06:01;;;;;;;17.83;4.20;;;8.70;99.90;;;;;;5012266;28;20038;-86
2021/05/26 06:08:27;;;;;;;21.88;5.63;;;8.60;99.90;;;;;;5012704;28;20026;-87
2021/05/26 06:10:52;;;;;;;24.98;4.57;;;8.70;99.90;;;;;;5012978;28;20030;-86
2021/05/26 06:13:18;;;;;;;22.38;4.90;;;8.70;99.90;;;;;;5012651;28;20028;-84
2021/05/26 06:15:44;;;;;;;19.70;5.00;;;8.70;99.90;;;;;;5011318;28;20129;-86
2021/05/26 06:18:09;;;;;;;18.88;4.82;;;8.80;99.90;;;;;;5012882;28;20053;-87
2021/05/26 06:20:35;;;;;;;17.98;3.83;;;8.80;99.90;;;;;;5011517;28;20026;-86
2021/05/26 06:23:00;;;;;;;16.48;3.53;;;8.80;99.90;;;;;;5027502;28;20052;-88
2021/05/26 06:25:26;;;;;;;24.33;4.53;;;8.80;99.90;;;;;;5012336;28;20038;-85
2021/05/26 06:27:52;;;;;;;25.05;5.35;;;8.80;99.90;;;;;;5012484;28;20117;-86
2021/05/26 06:30:18;;;;;;;30.27;4.80;;;8.80;99.90;;;;;;5012466;28;20030;-85
2021/05/26 06:32:44;;;;;;;13.82;4.18;;;8.80;99.90;;;;;;5010885;28;20026;-85
2021/05/26 06:35:11;;;;;;;23.92;4.15;;;8.90;99.90;;;;;;5012509;28;20045;-85
2021/05/26 06:37:37;;;;;;;28.95;4.55;;;8.90;99.90;;;;;;5011024;28;20375;-86
2021/05/26 06:40:05;;;;;;;17.98;3.72;;;8.90;99.90;;;;;;5011243;28;20116;-85
2021/05/26 06:42:31;;;;;;;12.02;3.60;;;8.90;99.90;;;;;;5011235;28;20556;-89
2021/05/26 06:44:56;;;;;;;11.82;3.20;;;8.80;99.90;;;;;;5019076;28;20030;-85
2021/05/26 06:47:22;;;;;;;14.27;3.58;;;8.80;99.90;;;;;;5007890;28;20101;-89
2021/05/26 06:49:48;;;;;;;15.32;3.65;;;8.70;99.90;;;;;;5010538;28;20021;-88
2021/05/26 06:52:13;;;;;;;16.73;4.93;;;8.70;99.90;;;;;;5009461;28;20022;-86
2021/05/26 06:54:39;;;;;;;11.82;4.57;;;8.80;99.90;;;;;;5008688;28;20528;-88
2021/05/26 06:57:05;;;;;;;20.98;5.18;;;8.70;99.90;;;;;;5007977;28;20490;-83
2021/05/26 06:59:30;;;;;;;28.20;5.22;;;8.70;99.90;;;;;;5012341;28;20048;-87
2021/05/26 07:01:56;;;;;;;22.73;4.47;;;8.70;99.90;;;;;;5010461;28;20116;-85
2021/05/26 07:04:21;;;;;;;18.40;6.43;;;8.70;99.90;;;;;;5012301;28;20105;-87
2021/05/26 07:06:47;;;;;;;13.98;4.95;;;8.70;99.90;;;;;;5010588;28;20061;-88
2021/05/26 07:09:12;;;;;;;27.10;6.22;;;8.70;99.90;;;;;;5012440;28;20026;-86
2021/05/26 07:11:38;;;;;;;27.42;6.57;;;8.70;99.90;;;;;;5027429;28;20034;-86
2021/05/26 07:14:04;;;;;;;24.95;4.78;;;8.60;99.90;;;;;;5012035;28;20089;-86
2021/05/26 07:16:29;;;;;;;15.95;3.47;;;8.60;99.90;;;;;;5011173;28;20395;-85
2021/05/26 07:18:59;;;;;;;20.58;3.80;;;8.60;99.90;;;;;;5012042;28;20456;-85
2021/05/26 07:21:25;;;;;;;11.45;4.65;;;8.60;99.90;;;;;;5010757;28;20033;-85
2021/05/26 07:23:51;;;;;;;22.05;10.35;;;8.60;99.90;;;;;;5010831;28;20548;-85
2021/05/26 07:26:17;;;;;;;29.58;8.93;;;8.60;99.90;;;;;;5010900;28;20018;-85
2021/05/26 07:28:42;;;;;;;30.50;6.15;;;8.60;99.90;;;;;;5010809;28;20053;-88
2021/05/26 07:31:08;;;;;;;13.77;5.30;;;8.60;99.90;;;;;;5010977;28;20514;-87
2021/05/26 07:33:34;;;;;;;15.00;4.88;;;8.70;99.90;;;;;;5011707;28;20578;-87
2021/05/26 07:35:59;;;;;;;15.52;6.20;;;8.70;99.90;;;;;;5011802;28;20022;-87
2021/05/26 07:38:26;;;;;;;22.80;4.50;;;8.80;99.90;;;;;;5012016;28;20033;-85
2021/05/26 07:40:51;;;;;;;13.27;3.47;;;8.70;99.90;;;;;;5012036;28;20018;-86
2021/05/26 07:43:17;;;;;;;8.55;2.58;;;8.60;99.90;;;;;;5010439;28;20037;-85
2021/05/26 07:45:42;;;;;;;24.20;6.20;;;8.70;99.90;;;;;;5011565;28;20049;-87
2021/05/26 07:48:08;;;;;;;18.58;6.07;;;8.70;99.90;;;;;;5011701;28;20025;-85
2021/05/26 07:50:35;;;;;;;26.40;8.30;;;8.80;99.90;;;;;;5010417;28;20506;-84
2021/05/26 07:53:02;;;;;;;16.13;3.97;;;8.80;99.90;;;;;;5009706;28;20030;-85
2021/05/26 07:55:27;;;;;;;30.38;6.10;;;8.80;99.90;;;;;;5010321;28;20030;-84
2021/05/26 07:57:53;;;;;;;23.80;5.40;;;8.80;99.90;;;;;;5009439;28;20026;-84
2021/05/26 08:00:19;;;;;;;16.88;5.05;;;8.80;99.90;;;;;;5004590;28;20023;-85
2021/05/26 08:02:45;;;;;;;30.65;5.60;;;8.80;99.90;;;;;;4991913;28;20041;-84
2021/05/26 08:05:11;;;;;;;15.68;3.70;;;8.80;99.90;;;;;;4991678;28;20487;-86
2021/05/26 08:07:36;;;;;;;26.85;4.35;;;8.70;99.90;;;;;;4997891;28;20034;-84
2021/05/26 08:10:05;;;;;;;19.55;4.57;;;8.80;99.90;;;;;;5010193;28;20018;-85
2021/05/26 08:12:30;;;;;;;19.02;4.47;;;8.80;99.90;;;;;;5010630;28;20018;-84
2021/05/26 08:14:56;;;;;;;27.02;5.38;;;8.90;99.90;;;;;;5013502;28;20133;-84
2021/05/26 08:17:21;;;;;;;22.50;4.72;;;9.00;99.90;;;;;;5014265;28;20040;-85
2021/05/26 08:19:47;;;;;;;17.85;4.18;;;9.10;99.90;;;;;;5010149;28;20029;-83
2021/05/26 08:22:13;;;;;;;19.38;4.03;;;9.10;99.90;;;;;;4996842;28;20037;-84
2021/05/26 08:24:38;;;;;;;27.50;5.32;;;9.10;99.90;;;;;;5029839;28;20029;-84
2021/05/26 08:27:04;;;;;;;15.43;4.25;;;9.20;99.90;;;;;;5013232;28;20073;-87
2021/05/26 08:29:32;;;;;;;17.00;3.90;;;9.20;99.90;;;;;;5029361;28;20053;-85
2021/05/26 08:31:58;;;;;;;24.58;4.88;;;9.20;99.90;;;;;;5013282;28;20113;-86
2021/05/26 08:34:25;;;;;;;21.08;4.57;;;9.20;99.90;;;;;;5013370;28;20022;-90
2021/05/26 08:36:50;;;;;;;26.52;4.60;;;9.30;99.90;;;;;;5014659;28;20030;-85
2021/05/26 08:39:16;;;;;;;13.65;3.33;;;9.20;99.90;;;;;;5012692;28;20453;-86
2021/05/26 08:41:46;;;;;;;18.20;6.55;;;9.20;99.90;;;;;;5013287;28;20035;-84
2021/05/26 08:44:15;;;;;;;19.58;4.63;;;9.20;99.90;;;;;;5013114;28;20030;-85
2021/05/26 08:46:41;;;;;;;21.00;5.35;;;9.30;99.90;;;;;;5014433;28;20057;-85
2021/05/26 08:49:09;;;;;;;24.58;4.10;;;9.20;99.90;;;;;;5029437;28;20057;-86
2021/05/26 08:51:35;;;;;;;19.35;3.90;;;9.20;99.90;;;;;;5011981;28;20025;-85
2021/05/26 08:54:01;;;;;;;15.50;3.95;;;9.20;99.90;;;;;;5009742;28;20104;-86
2021/05/26 08:56:26;;;;;;;12.90;3.97;;;9.20;99.90;;;;;;5008263;28;20167;-86
2021/05/26 08:58:52;;;;;;;21.88;6.13;;;9.20;99.90;;;;;;5008845;28;20410;-86
2021/05/26 09:01:20;;;;;;;18.58;4.15;;;9.20;99.90;;;;;;5010121;28;20049;-86
2021/05/26 09:03:47;;;;;;;12.93;3.75;;;9.10;99.90;;;;;;5008841;28;20033;-87
2021/05/26 09:06:14;;;;;;;19.48;5.25;;;9.10;99.90;;;;;;5010053;28;20034;-87
2021/05/26 09:08:52;;;;;;;20.65;4.65;;;9.10;99.90;;;;;;5014823;28;20447;-85
2021/05/26 09:11:30;;;;;;;23.10;4.20;;;9.10;99.90;;;;;;5010574;28;20061;-87
2021/05/26 09:13:55;;;;;;;23.80;5.20;;;9.10;99.90;;;;;;5008558;28;20025;-86
2021/05/26 09:16:21;;;;;;;27.73;6.22;;;9.10;99.90;;;;;;5008252;28;20029;-84
2021/05/26 09:19:04;;;;;;;28.65;5.00;;;9.10;99.90;;;;;;5008584;28;20034;-85
2021/05/26 09:21:44;;;;;;;16.80;4.80;;;9.10;99.90;;;;;;5009628;28;20034;-86
2021/05/26 09:24:26;;;;;;;25.17;4.60;;;9.10;99.90;;;;;;5008894;28;20068;-83
2021/05/26 09:27:01;;;;;;;23.77;4.60;;;9.10;99.90;;;;;;5009137;28;20034;-85
2021/05/26 09:29:29;;;;;;;24.20;4.57;;;9.10;99.90;;;;;;5009522;28;20112;-85
2021/05/26 09:32:25;;;;;;;20.23;4.40;;;9.10;99.90;;;;;;5008359;28;20068;-84
2021/05/26 09:34:55;;;;;;;26.30;5.60;;;9.10;99.90;;;;;;5002478;28;20022;-83
2021/05/26 09:37:20;;;;;;;22.23;5.45;;;9.20;99.90;;;;;;5023811;28;20534;-85
2021/05/26 09:39:47;;;;;;;29.20;9.45;;;9.20;99.90;;;;;;5007749;28;20164;-85
2021/05/26 09:42:32;;;;;;;15.57;4.50;;;9.20;99.90;;;;;;5007629;28;20033;-84
2021/05/26 09:45:17;;;;;;;30.13;4.93;;;9.20;99.90;;;;;;5010498;28;20033;-83
2021/05/26 09:47:51;;;;;;;21.92;5.80;;;9.20;99.90;;;;;;5004706;28;20032;-85
2021/05/26 09:50:30;;;;;;;20.88;4.97;;;9.20;99.90;;;;;;5009122;28;20028;-85
2021/05/26 09:53:19;;;;;;;15.80;3.95;;;9.20;99.90;;;;;;5007751;28;20478;-84
2021/05/26 09:55:46;;;;;;;10.88;3.70;;;9.20;99.90;;;;;;5006703;28;20038;-84
2021/05/26 09:58:13;;;;;;;20.30;5.05;;;9.20;99.90;;;;;;5006249;28;20105;-84
2021/05/26 10:00:41;;;;;;;21.05;3.92;;;9.10;99.90;;;;;;5007123;28;20084;-82
2021/05/26 10:03:07;;;;;;;17.23;3.55;;;9.10;99.90;;;;;;5008900;28;20041;-86
2021/05/26 10:05:34;;;;;;;21.08;3.85;;;9.10;99.90;;;;;;5007058;28;20107;-86
2021/05/26 10:08:01;;;;;;;21.80;4.25;;;9.10;99.90;;;;;;5006861;28;20104;-85
2021/05/26 10:10:29;;;;;;;24.00;4.35;;;9.10;99.90;;;;;;5008550;28;20057;-86
2021/05/26 10:13:03;;;;;;;23.92;4.32;;;9.10;99.90;;;;;;5014079;28;20084;-87
2021/05/26 10:15:30;;;;;;;23.85;4.72;;;9.10;99.90;;;;;;5007258;28;20088;-86
2021/05/26 10:17:58;;;;;;;27.20;4.68;;;9.10;99.90;;;;;;5007859;28;20060;-84
2021/05/26 10:20:33;;;;;;;22.85;4.63;;;9.10;99.90;;;;;;5005450;28;20911;-85
2021/05/26 10:23:01;;;;;;;29.35;5.47;;;9.10;99.90;;;;;;5023701;28;20053;-87
2021/05/26 10:25:27;;;;;;;20.23;5.20;;;9.10;99.90;;;;;;5008426;28;20047;-85
2021/05/26 10:27:57;;;;;;;28.13;5.18;;;9.10;99.90;;;;;;5007677;28;20494;-86
2021/05/26 10:30:26;;;;;;;23.42;4.63;;;9.10;99.90;;;;;;5023559;28;20080;-86
2021/05/26 10:33:01;;;;;;;20.42;5.25;;;9.10;99.90;;;;;;5008173;28;20072;-86
2021/05/26 10:35:29;;;;;;;23.88;5.80;;;9.00;99.90;;;;;;5008051;28;20022;-86
2021/05/26 10:38:06;;;;;;;27.02;5.53;;;8.90;99.90;;;;;;5007036;28;20026;-89
2021/05/26 10:40:43;;;;;;;27.20;5.40;;;9.00;99.90;;;;;;5007536;28;20029;-86
2021/05/26 10:43:22;;;;;;;36.42;6.00;;;9.10;99.90;;;;;;5008880;28;20549;-87
2021/05/26 10:45:50;;;;;;;15.07;4.85;;;9.00;99.90;;;;;;5007231;28;20032;-84
2021/05/26 10:48:43;;;;;;;21.95;5.57;;;9.00;99.90;;;;;;5008082;28;20087;-85
2021/05/26 10:51:11;;;;;;;18.80;4.67;;;9.00;99.90;;;;;;5006262;28;20061;-84
2021/05/26 10:53:41;;;;;;;20.42;4.70;;;9.00;99.90;;;;;;5006362;28;20037;-86
2021/05/26 10:56:35;;;;;;;20.50;4.28;;;8.90;99.90;;;;;;5006822;28;20070;-83
2021/05/26 10:59:10;;;;;;;21.52;4.75;;;8.90;99.90;;;;;;5003598;28;20495;-84
2021/05/26 11:02:13;;;;;;;24.77;5.05;;;9.00;99.90;;;;;;5006578;28;20482;-83
2021/05/26 11:04:40;;;;;;;20.88;5.80;;;9.00;99.90;;;;;;5000687;28;20033;-83
2021/05/26 11:07:29;;;;;;;26.17;5.47;;;9.10;99.90;;;;;;5005695;28;20483;-83
2021/05/26 11:10:01;;;;;;;23.10;5.93;;;9.10;99.90;;;;;;5006594;28;20030;-83
2021/05/26 11:12:27;;;;;;;24.10;5.18;;;9.10;99.90;;;;;;5008221;28;20025;-83
2021/05/26 11:14:54;;;;;;;20.20;4.30;;;9.10;99.90;;;;;;5007121;28;20080;-83
2021/05/26 11:17:25;;;;;;;32.10;6.10;;;9.10;99.90;;;;;;5006456;28;20022;-83
2021/05/26 11:20:03;;;;;;;35.28;5.97;;;9.10;99.90;;;;;;5008514;28;20026;-83
2021/05/26 11:22:28;;;;;;;31.42;6.18;;;9.10;99.90;;;;;;5008474;28;20026;-84
2021/05/26 11:24:55;;;;;;;26.70;6.07;;;9.10;99.90;;;;;;5006416;28;20037;-83
2021/05/26 11:27:23;;;;;;;29.80;6.63;;;9.20;99.90;;;;;;5007942;28;20032;-85
2021/05/26 11:29:50;;;;;;;30.17;7.05;;;9.20;99.90;;;;;;5006606;28;20546;-85
2021/05/26 11:32:21;;;;;;;31.30;6.18;;;9.10;99.90;;;;;;5006196;28;20064;-84
2021/05/26 11:34:49;;;;;;;29.77;5.47;;;9.20;99.90;;;;;;5005470;28;20053;-83
2021/05/26 11:37:31;;;;;;;21.23;5.43;;;9.20;99.90;;;;;;5006158;28;20036;-84
2021/05/26 11:39:59;;;;;;;23.45;5.20;;;9.40;99.90;;;;;;5008514;28;20076;-82
2021/05/26 11:42:27;;;;;;;17.85;4.78;;;9.40;99.90;;;;;;5006239;28;20517;-84
2021/05/26 11:45:05;;;;;;;30.63;5.03;;;9.40;99.90;;;;;;5009327;28;20044;-85
2021/05/26 11:47:38;;;;;;;31.83;5.15;;;9.40;99.90;;;;;;5011111;28;20030;-84
2021/05/26 11:50:14;;;;;;;;;;;9.50;99.90;;;;;;5015513;28;20030;-83
2021/05/26 11:52:40;;;;;;;24.10;5.20;;;9.50;99.90;;;;;;5014700;28;19936;-83
2021/05/26 11:55:06;;;;;;;30.08;4.43;;;9.60;99.90;;;;;;5014987;28;20025;-83
2021/05/26 11:57:33;;;;;;;24.80;5.10;;;9.60;99.90;;;;;;5014925;28;20456;-83
2021/05/26 12:00:00;;;;;;;31.42;5.15;;;9.60;99.90;;;;;;5013842;28;20061;-84
2021/05/26 12:02:25;;;;;;;26.83;5.60;;;9.50;99.90;;;;;;5013626;28;20026;-84
2021/05/26 12:04:51;;;;;;;26.15;7.20;;;9.50;99.90;;;;;;5013561;28;20037;-84
2021/05/26 12:07:27;;;;;;;22.02;4.88;;;9.60;99.90;;;;;;5014712;28;20026;-83
2021/05/26 12:10:00;;;;;;;16.13;3.85;;;9.50;99.90;;;;;;5013433;28;20037;-83
2021/05/26 12:12:26;;;;;;;27.95;6.65;;;9.50;99.90;;;;;;5009541;28;20117;-85
2021/05/26 12:14:53;;;;;;;33.28;5.13;;;9.40;99.90;;;;;;5009127;28;20617;-86
2021/05/26 12:17:20;;;;;;;30.45;5.03;;;9.50;99.90;;;;;;5009681;28;20030;-86
2021/05/26 12:19:47;;;;;;;35.25;7.07;;;9.50;99.90;;;;;;5002246;28;20033;-88
2021/05/26 12:22:18;;;;;;;14.63;5.03;;;9.40;99.90;;;;;;5015154;28;20033;-84
2021/05/26 12:25:01;;;;;;;27.38;5.88;;;9.40;99.90;;;;;;5012655;28;20508;-86
2021/05/26 12:27:45;;;;;;;31.80;4.72;;;9.40;99.90;;;;;;5015034;28;20080;-85
2021/05/26 12:30:21;;;;;;;51.05;7.32;;;9.50;99.90;;;;;;5015032;28;20029;-86
2021/05/26 12:32:49;;;;;;;24.10;6.30;;;9.50;99.90;;;;;;5014704;28;20049;-88
2021/05/26 12:35:16;;;;;;;24.90;5.28;;;9.50;99.90;;;;;;5014901;28;20025;-85
2021/05/26 12:37:48;;;;;;;31.23;5.10;;;9.60;99.90;;;;;;5013816;28;20129;-87
2021/05/26 12:40:31;;;;;;;25.58;4.93;;;9.60;99.90;;;;;;5013351;28;20512;-86
2021/05/26 12:42:59;;;;;;;29.30;5.80;;;9.60;99.90;;;;;;5014594;28;20029;-89
2021/05/26 12:45:30;;;;;;;14.57;4.43;;;9.70;99.90;;;;;;5014458;28;20113;-88
2021/05/26 12:47:58;;;;;;;29.52;4.43;;;9.70;99.90;;;;;;5015186;28;20026;-88
2021/05/26 12:50:26;;;;;;;27.88;5.22;;;9.60;99.90;;;;;;5013510;28;20512;-86
2021/05/26 12:52:53;;;;;;;25.02;6.07;;;9.60;99.90;;;;;;5012701;28;20030;-85
2021/05/26 12:55:23;;;;;;;36.05;6.88;;;9.70;99.90;;;;;;5012833;28;20026;-85